Date,TemperatureHighF,TemperatureAvgF,TemperatureLowF,DewpointHighF,DewpointAvgF,DewpointLowF,HumidityHigh,HumidityAvg,HumidityLow,PressureMaxIn,PressureMinIn,WindSpeedMaxMPH,WindSpeedAvgMPH,GustSpeedMaxMPH,PrecipitationSumIn
2013-5-1,80.4,65.2,49.0,60.2,54.0,48.1,98,71,42,30.19,30.02,8,1,0,0.00
2013-5-2,77.7,65.1,50.6,57.4,51.1,46.6,91,63,39,30.20,30.09,8,1,0,0.00
2013-5-3,77.2,65.6,54.3,57.4,46.2,34.3,68,52,23,30.09,30.01,9,1,12,0.00
2013-5-4,69.3,61.2,52.2,49.1,44.2,36.9,82,56,32,30.08,30.02,11,1,12,0.00
2013-5-5,71.9,59.8,49.3,46.5,41.9,29.4,85,56,23,30.07,29.99,10,1,12,0.00
2013-5-6,74.3,67.6,52.2,52.5,48.1,42.9,81,51,38,30.02,29.94,8,1,0,0.00
2013-5-7,75.8,61.9,46.5,55.1,49.6,42.3,89,67,40,30.03,29.95,9,1,12,0.00
2013-5-8,80.0,64.6,50.1,55.4,50.6,46.0,95,65,31,29.99,29.88,8,0,0,0.00
2013-5-9,78.9,65.5,48.3,56.7,50.9,45.8,98,64,34,29.92,29.84,8,1,0,0.00
2013-5-10,65.3,54.9,41.1,61.7,51.1,38.6,97,88,57,29.86,29.69,9,1,0,0.24
2013-5-11,61.2,46.4,37.5,48.4,41.3,32.8,96,84,57,29.86,29.69,15,2,19,0.03
2013-5-12,47.4,39.9,31.6,34.1,30.3,24.9,85,69,52,30.07,29.83,18,5,22,0.00
2013-5-13,53.2,40.4,27.3,33.9,26.8,23.7,88,62,33,30.16,30.07,12,2,14,0.00
2013-5-14,74.3,54.7,39.6,52.7,40.8,32.5,86,61,42,30.09,29.70,9,1,17,0.00
2013-5-15,79.3,67.6,51.3,59.8,51.1,45.5,97,60,32,29.74,29.54,19,3,19,0.00
2013-5-16,79.4,64.5,46.2,53.3,47.0,40.1,97,58,29,29.99,29.73,11,1,12,0.00
2013-5-17,71.6,58.4,44.4,50.5,44.1,39.8,86,61,39,30.11,29.99,7,0,0,0.00
2013-5-18,79.3,65.1,53.7,52.1,46.8,43.6,76,54,32,30.11,29.99,10,0,0,0.00
2013-5-19,84.6,68.7,51.4,66.3,57.1,46.3,93,68,46,30.01,29.83,10,0,0,0.00
2013-5-20,88.4,72.5,60.3,72.8,64.4,58.9,97,78,44,29.88,29.70,12,1,17,0.00
2013-5-21,82.5,71.7,63.6,68.2,64.0,61.0,96,79,50,29.77,29.66,10,1,12,0.00
2013-5-22,79.1,67.7,62.4,66.4,62.6,59.8,94,84,55,29.69,29.56,14,1,16,0.05
2013-5-23,62.9,52.0,41.5,60.2,50.1,39.1,97,93,89,30.11,29.62,7,0,0,0.27
2013-5-24,55.2,45.1,36.5,40.4,37.2,32.7,95,75,49,30.34,30.11,9,1,12,0.01
2013-5-25,64.2,49.0,34.4,44.9,38.0,33.3,97,70,40,30.38,30.26,7,0,0,0.00
2013-5-26,67.8,52.3,34.5,45.1,38.2,33.2,98,64,33,30.33,30.20,7,0,0,0.00
2013-5-27,61.7,50.0,39.2,49.6,43.0,33.6,97,80,39,30.25,29.99,6,0,0,0.28
2013-5-28,70.5,59.4,50.5,69.4,58.7,49.4,99,97,92,29.99,29.75,5,0,0,1.14
2013-5-29,80.8,71.1,61.8,68.8,65.4,60.3,97,83,54,29.94,29.68,11,1,15,0.04
2013-5-30,84.8,70.1,59.5,73.9,66.2,58.6,99,89,59,30.01,29.92,12,0,14,0.19
2013-5-31,79.8,71.5,65.7,70.6,67.0,64.5,97,86,68,29.95,29.80,12,1,15,0.08